Time;durP1;ratioP1;P1;durP2;ratioP2;P2;SDS_P1;SDS_P2;PMS_P1;PMS_P2;Temp;Humidity;BMP_temperature;BMP_pressure;BME280_temperature;BME280_humidity;BME280_pressure;Samples;Min_cycle;Max_cycle;Signal;HPM_P1;HPM_P2
2022/09/05 00:02:28;;;;;;;4.35;1.70;;;19.40;99.90;;;;;;5090103;28;20052;-68
2022/09/05 00:05:15;;;;;;;1.90;1.30;;;19.30;99.90;;;;;;5088344;28;20124;-67
2022/09/05 00:08:12;;;;;;;3.70;1.55;;;19.30;99.90;;;;;;5090054;28;20055;-70
2022/09/05 00:11:12;;;;;;;3.97;1.15;;;19.30;99.90;;;;;;5075160;28;20127;-67
2022/09/05 00:13:43;;;;;;;2.78;1.45;;;19.20;99.90;;;;;;5070286;28;20594;-69
2022/09/05 00:16:53;;;;;;;4.00;1.35;;;19.30;99.90;;;;;;5084075;28;20677;-67
2022/09/05 00:19:31;;;;;;;4.22;1.40;;;19.30;99.90;;;;;;5045508;28;20536;-69
2022/09/05 00:22:09;;;;;;;3.85;1.30;;;19.20;99.90;;;;;;5046064;28;20418;-68
2022/09/05 00:24:37;;;;;;;2.85;1.55;;;19.20;99.90;;;;;;5060951;28;20055;-67
2022/09/05 00:27:27;;;;;;;2.92;1.48;;;19.20;99.90;;;;;;5077600;28;20043;-70
2022/09/05 00:30:04;;;;;;;2.63;1.00;;;19.20;99.90;;;;;;5066627;28;20057;-67
2022/09/05 00:32:36;;;;;;;1.98;1.60;;;19.20;99.90;;;;;;5089537;28;20052;-68
2022/09/05 00:35:05;;;;;;;2.80;1.60;;;19.20;99.90;;;;;;5089274;28;20274;-68
2022/09/05 00:37:38;;;;;;;2.58;1.35;;;19.10;99.90;;;;;;5069715;28;20797;-68
2022/09/05 00:40:29;;;;;;;3.40;1.40;;;19.10;99.90;;;;;;5052074;28;20044;-67
2022/09/05 00:43:17;;;;;;;2.15;1.60;;;19.10;99.90;;;;;;5084199;28;20083;-67
2022/09/05 00:45:53;;;;;;;2.97;1.38;;;19.10;99.90;;;;;;5084594;28;20051;-66
2022/09/05 00:49:08;;;;;;;2.83;1.42;;;19.00;99.90;;;;;;5075633;28;20558;-68
2022/09/05 00:51:52;;;;;;;2.75;1.30;;;19.00;99.90;;;;;;5082423;28;20317;-67
2022/09/05 00:54:40;;;;;;;3.80;1.55;;;19.00;99.90;;;;;;5089238;28;20051;-67
2022/09/05 00:57:34;;;;;;;2.33;1.40;;;18.90;99.90;;;;;;5089159;28;20031;-68
2022/09/05 01:00:03;;;;;;;3.22;1.60;;;18.90;99.90;;;;;;5087059;28;20047;-67
2022/09/05 01:03:08;;;;;;;3.60;1.70;;;18.90;99.90;;;;;;5089708;28;20098;-69
2022/09/05 01:05:53;;;;;;;3.38;1.30;;;18.90;99.90;;;;;;5088744;28;20121;-68
2022/09/05 01:08:46;;;;;;;2.05;1.10;;;18.90;99.90;;;;;;5089113;28;20043;-68
2022/09/05 01:11:19;;;;;;;3.83;1.58;;;18.90;99.90;;;;;;5088577;28;20599;-69
2022/09/05 01:13:50;;;;;;;3.93;1.40;;;18.80;99.90;;;;;;5087857;28;20140;-68
2022/09/05 01:16:25;;;;;;;3.25;1.50;;;18.80;99.90;;;;;;5087235;28;20043;-67
2022/09/05 01:19:09;;;;;;;1.80;1.38;;;18.80;99.90;;;;;;5088615;28;20415;-67
2022/09/05 01:21:51;;;;;;;2.97;1.73;;;18.80;99.90;;;;;;5081187;28;20436;-68
2022/09/05 01:24:32;;;;;;;2.22;1.50;;;18.80;99.90;;;;;;5069717;28;20048;-68
2022/09/05 01:27:22;;;;;;;4.53;1.30;;;18.80;99.90;;;;;;5069712;28;20374;-67
2022/09/05 01:29:57;;;;;;;1.77;1.40;;;18.70;99.90;;;;;;5068452;28;20040;-66
2022/09/05 01:32:28;;;;;;;4.82;1.58;;;18.70;99.90;;;;;;5070616;28;20050;-68
2022/09/05 01:35:22;;;;;;;3.28;1.55;;;18.70;99.90;;;;;;5071680;28;20048;-67
2022/09/05 01:38:20;;;;;;;4.40;1.90;;;18.70;99.90;;;;;;5083377;28;20059;-68
2022/09/05 01:40:51;;;;;;;3.10;1.40;;;18.60;99.90;;;;;;5091955;28;20346;-68
2022/09/05 01:43:39;;;;;;;3.47;1.52;;;18.60;99.90;;;;;;5091133;28;20047;-67
2022/09/05 01:46:40;;;;;;;1.83;1.33;;;18.60;99.90;;;;;;5083908;28;20352;-67
2022/09/05 01:49:36;;;;;;;4.15;1.52;;;18.60;99.90;;;;;;5089800;28;20050;-68
2022/09/05 01:52:28;;;;;;;2.80;1.60;;;18.50;99.90;;;;;;5077536;28;20146;-68
2022/09/05 01:55:06;;;;;;;2.90;1.48;;;18.50;99.90;;;;;;5071663;28;20044;-70
2022/09/05 01:57:59;;;;;;;3.00;1.70;;;18.50;99.90;;;;;;5071976;28;20542;-67
2022/09/05 02:00:46;;;;;;;1.92;1.38;;;18.50;99.90;;;;;;5075193;28;20068;-69
2022/09/05 02:03:39;;;;;;;2.17;1.25;;;18.50;99.90;;;;;;5076047;28;20079;-68
2022/09/05 02:06:10;;;;;;;3.70;1.60;;;18.50;99.90;;;;;;5064211;28;20642;-67
2022/09/05 02:08:48;;;;;;;2.03;1.50;;;18.50;99.90;;;;;;5075576;28;20097;-67
2022/09/05 02:11:15;;;;;;;2.75;1.10;;;18.50;99.90;;;;;;5075799;28;20052;-67
2022/09/05 02:14:31;;;;;;;2.45;1.80;;;18.40;99.90;;;;;;5075266;28;20104;-66
2022/09/05 02:17:28;;;;;;;3.25;1.35;;;18.50;99.90;;;;;;5051343;28;20103;-69
2022/09/05 02:20:18;;;;;;;4.85;1.70;;;18.50;99.90;;;;;;5050627;28;20052;-68
2022/09/05 02:22:49;;;;;;;2.50;1.38;;;18.40;99.90;;;;;;5073196;28;20063;-68
2022/09/05 02:25:18;;;;;;;1.73;1.50;;;18.40;99.90;;;;;;5074061;28;20117;-67
2022/09/05 02:27:53;;;;;;;2.88;1.58;;;18.40;99.90;;;;;;5074079;28;20051;-67
2022/09/05 02:30:23;;;;;;;3.28;1.35;;;18.30;99.90;;;;;;5075380;28;20435;-69
2022/09/05 02:33:27;;;;;;;2.50;1.17;;;18.40;99.90;;;;;;5074908;28;20051;-69
2022/09/05 02:36:06;;;;;;;2.63;1.40;;;18.30;99.90;;;;;;5075735;28;20070;-68
2022/09/05 02:38:38;;;;;;;2.83;1.38;;;18.30;99.90;;;;;;5075091;28;20052;-68
2022/09/05 02:41:12;;;;;;;2.75;1.50;;;18.20;99.90;;;;;;5074460;28;20084;-68
2022/09/05 02:43:59;;;;;;;3.42;1.90;;;18.30;99.90;;;;;;5093416;28;20418;-69
2022/09/05 02:46:24;;;;;;;2.75;1.38;;;18.20;99.90;;;;;;5092318;28;20454;-67
2022/09/05 02:49:01;;;;;;;3.72;2.00;;;18.20;99.90;;;;;;5091886;28;20060;-69
2022/09/05 02:51:35;;;;;;;3.50;1.45;;;18.20;99.90;;;;;;5090993;28;20044;-66
2022/09/05 02:54:19;;;;;;;4.05;1.80;;;18.20;99.90;;;;;;5092410;28;20167;-68
2022/09/05 02:56:57;;;;;;;2.75;1.80;;;18.10;99.90;;;;;;5072464;28;20059;-68
2022/09/05 02:59:44;;;;;;;3.35;1.73;;;18.00;99.90;;;;;;5072836;28;20163;-66
2022/09/05 03:02:32;;;;;;;2.10;1.75;;;18.00;99.90;;;;;;5072211;28;20091;-67
2022/09/05 03:05:11;;;;;;;3.03;1.90;;;18.00;99.90;;;;;;5084875;28;20095;-66
2022/09/05 03:08:05;;;;;;;2.72;1.42;;;17.90;99.90;;;;;;5093188;27;20172;-67
2022/09/05 03:11:02;;;;;;;2.97;1.90;;;17.90;99.90;;;;;;5071466;28;20054;-67
2022/09/05 03:13:40;;;;;;;3.25;1.27;;;17.90;99.90;;;;;;5072301;28;20139;-67
2022/09/05 03:16:49;;;;;;;2.97;1.75;;;17.90;99.90;;;;;;5071974;28;20050;-68
2022/09/05 03:19:37;;;;;;;1.98;1.27;;;17.90;99.90;;;;;;5022721;28;20342;-68
2022/09/05 03:22:08;;;;;;;2.47;1.50;;;18.00;99.90;;;;;;5070762;28;20083;-68
2022/09/05 03:25:04;;;;;;;4.93;1.77;;;18.00;99.90;;;;;;5071720;28;20054;-67
2022/09/05 03:27:29;;;;;;;3.45;1.60;;;17.90;99.90;;;;;;5071727;28;20439;-67
2022/09/05 03:30:14;;;;;;;2.45;1.67;;;17.90;99.90;;;;;;5072221;28;20044;-68
2022/09/05 03:32:55;;;;;;;4.38;1.50;;;17.90;99.90;;;;;;5071605;28;20089;-67
2022/09/05 03:36:10;;;;;;;2.33;1.50;;;17.90;99.90;;;;;;5073423;28;20089;-68
2022/09/05 03:38:48;;;;;;;3.53;1.55;;;17.90;99.90;;;;;;5054449;28;20056;-68
2022/09/05 03:41:13;;;;;;;3.20;1.67;;;17.80;99.90;;;;;;5074030;28;20044;-67
2022/09/05 03:43:58;;;;;;;2.75;1.70;;;17.80;99.90;;;;;;5073801;28;20052;-69
2022/09/05 03:47:05;;;;;;;3.83;1.65;;;17.80;99.90;;;;;;5073451;28;20044;-67
2022/09/05 03:49:40;;;;;;;3.63;1.70;;;17.80;99.90;;;;;;5073238;28;20063;-67
2022/09/05 03:52:43;;;;;;;3.85;1.52;;;17.80;99.90;;;;;;5071989;28;20052;-66
2022/09/05 03:55:18;;;;;;;2.50;1.70;;;17.80;99.90;;;;;;5073343;28;20547;-66
2022/09/05 03:57:46;;;;;;;2.05;1.60;;;17.70;99.90;;;;;;5073378;28;20087;-66
2022/09/05 04:00:24;;;;;;;3.55;1.70;;;17.70;99.90;;;;;;5073215;28;20060;-68
2022/09/05 04:03:02;;;;;;;3.85;1.73;;;17.70;99.90;;;;;;5073384;28;20488;-68
2022/09/05 04:05:49;;;;;;;2.35;1.88;;;17.70;99.90;;;;;;5073046;28;20044;-70
2022/09/05 04:08:30;;;;;;;2.08;1.70;;;17.70;99.90;;;;;;5073381;28;20039;-72
2022/09/05 04:11:07;;;;;;;4.47;1.63;;;17.60;99.90;;;;;;5073100;28;20051;-67
2022/09/05 04:13:52;;;;;;;2.90;1.70;;;17.60;99.90;;;;;;5073045;28;20397;-68
2022/09/05 04:16:25;;;;;;;2.88;1.45;;;17.60;99.90;;;;;;5072905;28;20520;-69
2022/09/05 04:19:03;;;;;;;;;;;17.60;99.90;;;;;;5073708;28;20123;-69
2022/09/05 04:21:33;;;;;;;2.60;1.80;;;17.50;99.90;;;;;;5072187;28;20013;-67
2022/09/05 04:24:28;;;;;;;5.25;1.80;;;17.50;99.90;;;;;;5072915;28;20480;-70
2022/09/05 04:27:00;;;;;;;3.88;1.90;;;17.50;99.90;;;;;;5064934;28;20438;-67
2022/09/05 04:29:56;;;;;;;4.70;1.85;;;17.50;99.90;;;;;;5073825;28;20043;-66
2022/09/05 04:32:27;;;;;;;1.98;1.77;;;17.50;99.90;;;;;;5073449;28;20048;-68
2022/09/05 04:35:01;;;;;;;3.05;1.67;;;17.50;99.90;;;;;;5091764;28;20048;-69
2022/09/05 04:37:33;;;;;;;2.75;1.70;;;17.40;99.90;;;;;;5091121;28;20166;-69
2022/09/05 04:40:38;;;;;;;3.55;1.92;;;17.40;99.90;;;;;;5090449;28;20162;-68
2022/09/05 04:43:12;;;;;;;4.22;1.85;;;17.50;99.90;;;;;;5090891;28;20615;-68
2022/09/05 04:45:44;;;;;;;;;;;17.50;99.90;;;;;;5089545;28;20048;-67
2022/09/05 04:48:14;;;;;;;2.88;1.77;;;17.40;99.90;;;;;;5090087;28;19932;-68
2022/09/05 04:51:06;;;;;;;2.88;1.70;;;17.40;99.90;;;;;;5089643;28;20059;-69
2022/09/05 04:53:49;;;;;;;3.70;1.88;;;17.40;99.90;;;;;;5091597;28;20040;-67
2022/09/05 04:56:20;;;;;;;4.93;1.90;;;17.40;99.90;;;;;;5080353;28;20350;-69
2022/09/05 04:58:58;;;;;;;4.00;1.95;;;17.30;99.90;;;;;;5069812;28;20054;-68
2022/09/05 05:01:44;;;;;;;3.83;2.00;;;17.40;99.90;;;;;;5069578;28;20100;-67
2022/09/05 05:04:16;;;;;;;3.08;2.17;;;17.30;99.90;;;;;;5069356;28;20450;-68
2022/09/05 05:07:20;;;;;;;3.45;1.70;;;17.30;99.90;;;;;;5070363;28;20432;-67
2022/09/05 05:10:00;;;;;;;3.70;1.92;;;17.30;99.90;;;;;;5068561;28;20059;-66
2022/09/05 05:12:49;;;;;;;3.67;1.65;;;17.20;99.90;;;;;;5069762;28;20182;-70
2022/09/05 05:15:20;;;;;;;3.05;1.90;;;17.20;99.90;;;;;;5058145;28;20066;-69
2022/09/05 05:18:12;;;;;;;2.88;1.88;;;17.10;99.90;;;;;;5070886;28;20090;-68
2022/09/05 05:20:42;;;;;;;2.33;2.08;;;17.10;99.90;;;;;;5070041;28;20727;-68
2022/09/05 05:23:12;;;;;;;2.13;1.63;;;17.10;99.90;;;;;;5068735;28;20374;-67
2022/09/05 05:25:53;;;;;;;4.93;1.90;;;17.10;99.90;;;;;;5070288;28;20044;-68
2022/09/05 05:28:47;;;;;;;2.50;1.95;;;17.10;99.90;;;;;;5069825;28;20100;-67
2022/09/05 05:31:17;;;;;;;3.17;2.10;;;17.10;99.90;;;;;;5069178;28;20087;-69
2022/09/05 05:33:48;;;;;;;2.25;2.05;;;17.20;99.90;;;;;;5073692;28;20155;-67
2022/09/05 05:36:19;;;;;;;4.60;2.00;;;17.20;99.90;;;;;;5073231;28;20056;-67
2022/09/05 05:38:56;;;;;;;2.95;1.98;;;17.20;99.90;;;;;;5075825;28;20048;-67
2022/09/05 05:41:28;;;;;;;3.85;1.88;;;17.30;99.90;;;;;;5078403;28;20455;-70
2022/09/05 05:43:54;;;;;;;3.03;1.63;;;17.30;99.90;;;;;;5095845;28;20053;-68
2022/09/05 05:46:33;;;;;;;2.95;1.70;;;17.40;99.90;;;;;;5087532;28;20048;-66
2022/09/05 05:49:25;;;;;;;2.55;1.67;;;17.50;99.90;;;;;;5085641;28;20124;-68
2022/09/05 05:52:33;;;;;;;5.85;1.80;;;17.60;99.90;;;;;;5097238;28;20130;-68
2022/09/05 05:55:50;;;;;;;2.47;1.80;;;17.80;99.90;;;;;;5076322;28;20055;-68
2022/09/05 05:58:42;;;;;;;3.17;1.55;;;18.00;99.90;;;;;;5062301;28;20052;-67
2022/09/05 06:01:30;;;;;;;2.60;1.58;;;18.20;99.90;;;;;;5073648;28;20063;-68
2022/09/05 06:04:02;;;;;;;3.40;1.38;;;18.20;99.90;;;;;;5075913;28;20044;-68
2022/09/05 06:06:39;;;;;;;1.70;1.48;;;18.30;99.90;;;;;;5075570;28;20507;-67
2022/09/05 06:09:43;;;;;;;2.03;1.42;;;18.50;99.90;;;;;;5076820;28;20056;-68
2022/09/05 06:12:34;;;;;;;2.10;1.40;;;18.60;99.90;;;;;;5074153;28;20074;-69
2022/09/05 06:15:06;;;;;;;4.30;1.50;;;18.70;99.90;;;;;;5094582;28;20062;-67
2022/09/05 06:17:57;;;;;;;4.57;1.90;;;18.80;99.90;;;;;;5094932;28;20043;-68
2022/09/05 06:20:57;;;;;;;2.38;1.42;;;18.90;99.90;;;;;;5094615;28;20055;-70
2022/09/05 06:23:50;;;;;;;3.50;1.63;;;19.00;99.90;;;;;;5094728;28;20079;-68
2022/09/05 06:26:24;;;;;;;2.03;1.40;;;19.00;99.90;;;;;;5094933;28;20052;-67
2022/09/05 06:29:28;;;;;;;1.50;1.23;;;19.00;99.90;;;;;;5094579;28;20358;-67
2022/09/05 06:31:56;;;;;;;2.58;1.35;;;19.00;99.90;;;;;;5077388;28;20075;-69
2022/09/05 06:34:33;;;;;;;2.00;1.67;;;19.00;99.90;;;;;;5076687;28;20052;-68
2022/09/05 06:37:24;;;;;;;2.28;1.40;;;19.10;99.90;;;;;;5094640;28;20047;-71
2022/09/05 06:40:02;;;;;;;2.42;1.30;;;19.30;99.90;;;;;;5075046;28;20511;-68
2022/09/05 06:42:40;;;;;;;2.70;1.30;;;19.40;99.90;;;;;;5075385;28;20046;-70
2022/09/05 06:45:31;;;;;;;2.10;1.48;;;19.50;99.90;;;;;;5073740;28;20545;-67
2022/09/05 06:48:09;;;;;;;2.45;1.63;;;19.60;99.90;;;;;;5075958;28;20134;-69
2022/09/05 06:50:55;;;;;;;2.45;1.45;;;19.80;99.90;;;;;;5075893;28;20040;-67
2022/09/05 06:53:32;;;;;;;3.33;1.65;;;19.90;99.90;;;;;;5076307;28;20352;-67
2022/09/05 06:56:02;;;;;;;5.38;2.17;;;20.10;99.90;;;;;;5075000;28;20131;-67
2022/09/05 06:58:49;;;;;;;2.88;1.90;;;20.20;99.90;;;;;;5075088;28;21087;-70
2022/09/05 07:01:25;;;;;;;4.57;1.95;;;20.30;99.90;;;;;;5074890;28;20860;-69
2022/09/05 07:03:58;;;;;;;3.78;1.80;;;20.30;99.90;;;;;;5074015;28;20574;-69
2022/09/05 07:06:43;;;;;;;2.80;1.70;;;20.30;99.90;;;;;;5073497;28;20050;-68
2022/09/05 07:09:27;;;;;;;3.05;1.30;;;20.40;99.90;;;;;;5073811;28;20309;-68
2022/09/05 07:12:05;;;;;;;;;;;20.60;99.90;;;;;;5073253;28;20548;-67
2022/09/05 07:14:39;;;;;;;2.33;1.45;;;20.50;99.90;;;;;;5071830;28;20069;-67
2022/09/05 07:17:15;;;;;;;3.60;1.88;;;20.60;99.90;;;;;;5071122;28;20051;-67
2022/09/05 07:20:00;;;;;;;2.42;1.48;;;20.80;99.90;;;;;;5056480;28;20059;-68
2022/09/05 07:22:40;;;;;;;5.28;1.60;;;20.70;99.90;;;;;;5091817;28;20074;-68
2022/09/05 07:25:09;;;;;;;3.22;1.42;;;20.40;99.90;;;;;;5072469;28;20078;-69
2022/09/05 07:27:50;;;;;;;3.05;2.03;;;20.30;99.90;;;;;;5092355;28;20108;-68
2022/09/05 07:30:19;;;;;;;3.00;1.80;;;20.50;99.90;;;;;;5092522;28;20055;-69
2022/09/05 07:32:49;;;;;;;3.20;1.65;;;20.80;99.90;;;;;;5084707;28;20051;-68
2022/09/05 07:35:28;;;;;;;2.75;1.40;;;21.00;99.90;;;;;;5092565;28;20052;-69
2022/09/05 07:38:13;;;;;;;1.80;1.45;;;20.90;99.90;;;;;;5092957;28;21007;-68
2022/09/05 07:40:47;;;;;;;2.30;1.88;;;20.70;99.90;;;;;;5093997;28;20085;-70
2022/09/05 07:43:17;;;;;;;2.45;2.00;;;20.60;99.90;;;;;;5094617;28;20575;-68
2022/09/05 07:45:48;;;;;;;2.17;1.67;;;20.70;99.90;;;;;;5095458;28;20384;-66
2022/09/05 07:48:22;;;;;;;3.05;1.65;;;20.90;99.90;;;;;;5094719;28;20051;-70
2022/09/05 07:50:57;;;;;;;2.72;1.70;;;21.10;99.90;;;;;;5093091;28;20039;-68
2022/09/05 07:53:24;;;;;;;1.95;1.42;;;21.40;99.90;;;;;;5094105;28;20418;-69
2022/09/05 07:55:56;;;;;;;3.05;1.83;;;21.50;99.90;;;;;;5093712;28;20393;-70
2022/09/05 07:58:30;;;;;;;2.78;1.73;;;21.60;99.90;;;;;;5093321;28;20050;-70
2022/09/05 08:00:57;;;;;;;1.88;1.40;;;21.80;99.90;;;;;;5093251;28;20062;-70
2022/09/05 08:03:28;;;;;;;3.05;1.50;;;21.90;99.90;;;;;;5093037;28;20066;-70
2022/09/05 08:05:59;;;;;;;3.67;1.35;;;21.80;99.90;;;;;;5072915;28;20044;-69
2022/09/05 08:08:33;;;;;;;4.40;1.70;;;21.90;99.90;;;;;;5073036;28;20052;-67
2022/09/05 08:11:10;;;;;;;3.03;1.90;;;21.90;99.90;;;;;;5071490;28;20127;-67
2022/09/05 08:13:38;;;;;;;4.28;1.60;;;22.20;99.90;;;;;;5072004;28;20105;-69
2022/09/05 08:16:06;;;;;;;3.40;1.70;;;22.30;99.90;;;;;;5072223;28;20055;-68
2022/09/05 08:18:36;;;;;;;1.85;1.50;;;22.40;99.90;;;;;;5073134;28;20103;-70
2022/09/05 08:21:10;;;;;;;3.90;1.58;;;22.50;99.90;;;;;;5069568;28;20087;-67
2022/09/05 08:24:20;;;;;;;3.70;1.73;;;22.30;99.90;;;;;;5070080;28;20120;-68
2022/09/05 08:27:02;;;;;;;4.78;1.63;;;22.30;99.90;;;;;;5059030;28;20469;-67
2022/09/05 08:29:52;;;;;;;5.10;1.80;;;22.40;99.90;;;;;;5069469;28;20047;-68
2022/09/05 08:32:36;;;;;;;3.30;1.77;;;22.80;99.90;;;;;;5070205;28;20322;-67
2022/09/05 08:35:06;;;;;;;3.85;1.85;;;22.90;99.90;;;;;;5069668;28;20439;-67
2022/09/05 08:37:32;;;;;;;2.25;1.85;;;23.10;99.90;;;;;;5070619;28;20059;-68
2022/09/05 08:40:06;;;;;;;4.35;1.60;;;23.10;99.90;;;;;;5089248;28;20051;-67
2022/09/05 08:42:41;;;;;;;3.75;1.60;;;23.20;99.90;;;;;;5090362;28;20063;-68
2022/09/05 08:45:33;;;;;;;3.63;1.70;;;23.30;99.90;;;;;;5090268;28;20704;-70
2022/09/05 08:48:18;;;;;;;6.57;1.83;;;23.80;99.90;;;;;;5084186;28;20047;-70
2022/09/05 08:50:53;;;;;;;3.38;1.85;;;23.90;99.90;;;;;;5090258;28;20048;-67
2022/09/05 08:54:00;;;;;;;3.88;1.83;;;23.80;99.90;;;;;;5089680;28;20063;-67
2022/09/05 08:57:05;;;;;;;3.38;1.63;;;23.60;99.90;;;;;;5078871;28;20051;-67
2022/09/05 08:59:44;;;;;;;5.70;1.67;;;23.50;99.90;;;;;;5040833;28;20516;-70
2022/09/05 09:02:35;;;;;;;3.85;1.52;;;23.50;99.90;;;;;;5070165;28;20059;-68
2022/09/05 09:05:05;;;;;;;4.63;1.67;;;23.50;99.90;;;;;;5089804;28;20132;-70
2022/09/05 09:07:39;;;;;;;3.53;1.80;;;23.60;99.90;;;;;;5089773;28;20151;-67
2022/09/05 09:10:36;;;;;;;1.85;1.63;;;23.40;99.90;;;;;;5089235;28;20419;-66
2022/09/05 09:13:22;;;;;;;6.07;1.90;;;23.30;99.90;;;;;;5089980;28;20513;-67
2022/09/05 09:15:53;;;;;;;4.53;1.73;;;23.30;99.90;;;;;;5072423;28;20353;-68
2022/09/05 09:18:21;;;;;;;3.70;2.28;;;23.30;99.90;;;;;;5069299;28;20703;-67
2022/09/05 09:21:11;;;;;;;3.45;1.60;;;23.40;99.90;;;;;;5087897;28;20049;-68
2022/09/05 09:24:01;;;;;;;3.88;2.00;;;23.50;99.90;;;;;;5087556;28;20049;-70
2022/09/05 09:26:40;;;;;;;2.40;1.83;;;23.60;99.90;;;;;;5089181;28;20370;-68
2022/09/05 09:29:12;;;;;;;2.50;1.67;;;24.00;99.90;;;;;;5087449;28;20553;-69
2022/09/05 09:31:58;;;;;;;2.73;2.00;;;24.40;99.90;;;;;;5088378;28;20040;-69
2022/09/05 09:34:24;;;;;;;3.80;2.13;;;24.70;99.90;;;;;;5082547;28;20054;-69
2022/09/05 09:36:58;;;;;;;4.85;1.73;;;24.80;99.90;;;;;;5086604;28;20507;-69
2022/09/05 09:39:34;;;;;;;4.47;1.70;;;25.10;99.90;;;;;;5088460;28;20359;-68
2022/09/05 09:42:21;;;;;;;5.38;1.92;;;25.50;99.90;;;;;;5088319;28;20073;-68
2022/09/05 09:44:48;;;;;;;6.13;2.15;;;25.80;99.90;;;;;;5088204;28;20040;-68
2022/09/05 09:47:21;;;;;;;4.28;1.95;;;26.00;98.60;;;;;;5088376;28;20545;-70
2022/09/05 09:50:13;;;;;;;7.28;1.88;;;26.30;97.90;;;;;;5088417;28;20104;-67
2022/09/05 09:53:15;;;;;;;2.50;2.13;;;26.50;97.20;;;;;;5088546;28;20511;-71
2022/09/05 09:56:16;;;;;;;5.32;1.75;;;26.40;95.20;;;;;;5072898;28;20351;-68
2022/09/05 09:58:44;;;;;;;5.63;2.22;;;26.40;96.60;;;;;;5077464;28;20087;-70
2022/09/05 10:01:34;;;;;;;10.00;1.90;;;26.50;95.10;;;;;;5087832;28;20107;-68
2022/09/05 10:04:03;;;;;;;4.88;1.60;;;26.60;95.60;;;;;;5088142;28;20436;-71
2022/09/05 10:07:09;;;;;;;6.07;2.00;;;26.90;94.00;;;;;;5088648;28;20722;-68
2022/09/05 10:09:44;;;;;;;5.65;1.70;;;26.90;94.80;;;;;;5075444;28;20383;-69
2022/09/05 10:12:48;;;;;;;4.82;1.75;;;26.90;94.30;;;;;;5073571;28;20465;-68
2022/09/05 10:15:28;;;;;;;4.85;1.40;;;26.90;94.70;;;;;;5073865;28;20058;-69
2022/09/05 10:18:21;;;;;;;2.67;1.63;;;27.20;94.60;;;;;;5069625;28;20503;-72
2022/09/05 10:21:10;;;;;;;6.05;1.23;;;27.40;92.90;;;;;;5076508;28;20552;-67
2022/09/05 10:23:51;;;;;;;4.40;1.60;;;27.50;91.60;;;;;;5074718;28;20407;-68
2022/09/05 10:26:44;;;;;;;4.20;1.70;;;27.40;92.40;;;;;;5073896;28;20358;-69
2022/09/05 10:29:27;;;;;;;7.18;1.67;;;27.60;90.80;;;;;;5075247;28;20835;-69
2022/09/05 10:32:04;;;;;;;3.75;1.55;;;27.40;91.90;;;;;;5074086;28;20408;-71
2022/09/05 10:34:45;;;;;;;3.67;1.60;;;27.50;91.20;;;;;;5074703;28;20314;-68
2022/09/05 10:37:13;;;;;;;5.43;1.40;;;27.50;90.80;;;;;;5075012;28;20043;-69
2022/09/05 10:39:47;;;;;;;5.68;1.52;;;27.50;90.60;;;;;;5075122;28;20527;-68
2022/09/05 10:42:30;;;;;;;2.97;1.50;;;27.30;92.00;;;;;;5086116;28;20044;-69
2022/09/05 10:44:56;;;;;;;4.25;1.60;;;27.30;91.30;;;;;;5094027;28;20058;-68
2022/09/05 10:47:40;;;;;;;4.78;1.60;;;27.40;91.10;;;;;;5094437;28;20043;-70
2022/09/05 10:50:32;;;;;;;2.70;1.75;;;27.40;91.40;;;;;;5093965;28;20105;-68
2022/09/05 10:53:08;;;;;;;4.45;1.95;;;27.50;89.70;;;;;;5072898;28;20783;-68
2022/09/05 10:56:03;;;;;;;5.13;1.80;;;27.20;90.90;;;;;;5072596;28;20054;-68
2022/09/05 10:59:08;;;;;;;2.33;1.33;;;27.20;91.40;;;;;;5070403;28;20577;-69
2022/09/05 11:01:58;;;;;;;4.15;1.42;;;27.50;90.20;;;;;;5071759;28;20210;-68
2022/09/05 11:04:45;;;;;;;5.18;1.40;;;27.60;90.30;;;;;;5072905;28;20909;-67
2022/09/05 11:07:23;;;;;;;3.80;1.25;;;27.80;89.90;;;;;;5071111;28;20044;-69
2022/09/05 11:10:00;;;;;;;3.33;1.38;;;28.10;88.30;;;;;;5071906;28;20097;-69
2022/09/05 11:12:50;;;;;;;3.30;1.45;;;28.30;88.50;;;;;;5072455;28;20048;-69
2022/09/05 11:15:29;;;;;;;5.03;1.20;;;28.30;87.40;;;;;;5071473;28;20051;-68
2022/09/05 11:18:16;;;;;;;4.05;1.30;;;28.50;87.00;;;;;;5071987;28;20079;-69
2022/09/05 11:21:28;;;;;;;4.82;1.02;;;28.90;86.30;;;;;;5070486;28;20143;-68
2022/09/05 11:23:57;;;;;;;3.10;1.00;;;29.20;83.80;;;;;;5062520;28;20770;-70
2022/09/05 11:26:29;;;;;;;2.03;0.80;;;29.40;85.10;;;;;;5074163;28;20059;-68
2022/09/05 11:29:13;;;;;;;5.22;1.10;;;29.80;82.40;;;;;;5073731;28;20431;-68
2022/09/05 11:32:07;;;;;;;2.33;0.95;;;29.80;80.50;;;;;;5073716;28;20449;-71
2022/09/05 11:34:45;;;;;;;2.65;1.00;;;30.00;77.50;;;;;;5085029;28;20062;-71
2022/09/05 11:37:51;;;;;;;2.33;0.70;;;30.20;75.00;;;;;;5076651;28;20660;-70
2022/09/05 11:40:39;;;;;;;3.72;1.00;;;30.20;75.30;;;;;;5072419;28;20415;-68
2022/09/05 11:43:19;;;;;;;2.15;1.02;;;29.90;79.50;;;;;;5073975;28;20070;-68
2022/09/05 11:46:15;;;;;;;3.70;1.02;;;29.90;76.50;;;;;;5091505;28;20487;-69
2022/09/05 11:49:02;;;;;;;3.97;0.93;;;29.90;73.90;;;;;;5092773;28;20105;-69
2022/09/05 11:52:15;;;;;;;2.13;0.75;;;29.80;73.80;;;;;;5092871;28;20047;-70
2022/09/05 11:54:59;;;;;;;;;;;29.90;75.80;;;;;;5093802;28;20407;-68
2022/09/05 11:57:47;;;;;;;2.00;0.80;;;29.80;74.40;;;;;;5086864;28;20333;-69
2022/09/05 12:00:32;;;;;;;3.53;0.80;;;29.40;76.80;;;;;;5071333;28;20300;-70
2022/09/05 12:03:25;;;;;;;3.83;0.75;;;29.40;76.30;;;;;;5071779;28;20470;-69
2022/09/05 12:06:25;;;;;;;1.95;0.80;;;29.60;76.80;;;;;;5089263;28;20547;-67
2022/09/05 12:09:17;;;;;;;3.88;0.90;;;29.80;76.30;;;;;;5087160;28;20517;-67
2022/09/05 12:12:08;;;;;;;3.00;0.90;;;29.80;78.10;;;;;;5069183;28;20086;-69
2022/09/05 12:15:00;;;;;;;3.00;0.88;;;30.00;74.70;;;;;;5077031;28;20055;-68
2022/09/05 12:17:39;;;;;;;4.57;0.80;;;30.00;74.80;;;;;;5090419;28;20112;-69
2022/09/05 12:20:13;;;;;;;1.95;0.70;;;30.30;74.70;;;;;;5090040;28;20126;-68
2022/09/05 12:22:56;;;;;;;3.15;1.02;;;30.70;71.70;;;;;;5090190;28;20126;-69
2022/09/05 12:25:37;;;;;;;3.38;1.05;;;30.60;72.20;;;;;;5090476;28;20054;-67
2022/09/05 12:28:06;;;;;;;2.83;0.90;;;30.40;72.90;;;;;;5090129;28;20047;-68
2022/09/05 12:30:36;;;;;;;3.13;0.75;;;30.20;75.50;;;;;;5090037;28;20238;-69
2022/09/05 12:33:11;;;;;;;2.85;0.77;;;30.00;74.20;;;;;;5089888;28;20104;-67
2022/09/05 12:35:52;;;;;;;5.22;1.00;;;29.90;75.30;;;;;;5071032;28;20051;-66
2022/09/05 12:38:36;;;;;;;5.10;1.17;;;30.20;76.00;;;;;;5072741;28;20062;-69
2022/09/05 12:41:17;;;;;;;2.92;0.82;;;30.50;72.60;;;;;;5073688;28;20623;-70
2022/09/05 12:43:54;;;;;;;2.40;0.70;;;30.70;71.80;;;;;;5074115;28;20063;-70
2022/09/05 12:46:27;;;;;;;3.88;0.80;;;31.00;70.30;;;;;;5075740;28;20040;-69
2022/09/05 12:49:23;;;;;;;2.67;0.90;;;30.90;69.80;;;;;;5075817;28;20466;-68
2022/09/05 12:52:02;;;;;;;2.00;0.70;;;30.90;69.40;;;;;;5088488;28;20060;-68
2022/09/05 12:54:34;;;;;;;3.58;0.82;;;30.90;69.20;;;;;;5084969;28;20567;-69
2022/09/05 12:57:26;;;;;;;3.72;0.75;;;31.00;68.90;;;;;;5076082;28;20274;-68
2022/09/05 12:59:58;;;;;;;4.07;0.70;;;30.80;66.30;;;;;;5068466;28;20434;-68
2022/09/05 13:02:31;;;;;;;3.47;0.80;;;30.60;67.90;;;;;;5091005;28;20142;-70
2022/09/05 13:05:07;;;;;;;2.17;1.08;;;30.70;68.50;;;;;;5079778;28;20131;-71
2022/09/05 13:07:41;;;;;;;2.83;0.70;;;30.80;66.30;;;;;;5084325;28;20056;-69
2022/09/05 13:10:14;;;;;;;3.72;0.90;;;30.80;67.10;;;;;;5092785;28;20047;-68
2022/09/05 13:12:53;;;;;;;4.60;1.15;;;30.60;66.40;;;;;;5093350;28;20047;-68
2022/09/05 13:15:23;;;;;;;2.15;0.80;;;30.80;66.20;;;;;;5091765;28;20052;-69
2022/09/05 13:18:09;;;;;;;1.80;0.73;;;30.60;67.10;;;;;;5084282;28;20131;-69
2022/09/05 13:20:44;;;;;;;2.55;0.68;;;31.00;64.80;;;;;;5072866;28;20054;-71
2022/09/05 13:23:22;;;;;;;4.45;0.80;;;31.30;64.00;;;;;;5086607;28;20043;-68
2022/09/05 13:25:59;;;;;;;3.13;0.70;;;31.10;63.90;;;;;;5078643;28;20451;-70
2022/09/05 13:28:34;;;;;;;5.45;0.90;;;31.20;61.00;;;;;;5071358;28;20047;-68
2022/09/05 13:31:06;;;;;;;4.85;1.08;;;31.00;60.80;;;;;;5070196;28;20052;-69
2022/09/05 13:33:50;;;;;;;2.30;0.73;;;31.00;61.50;;;;;;5069287;28;20619;-68
2022/09/05 13:36:23;;;;;;;3.75;0.70;;;31.30;62.00;;;;;;5070770;28;20447;-71
2022/09/05 13:39:08;;;;;;;3.00;1.20;;;31.50;61.90;;;;;;5084090;28;20052;-70
2022/09/05 13:41:40;;;;;;;4.03;0.75;;;31.90;61.30;;;;;;5088003;28;20522;-69
2022/09/05 13:44:10;;;;;;;3.03;0.65;;;32.30;58.60;;;;;;5089609;28;20303;-69
2022/09/05 13:46:53;;;;;;;1.88;0.70;;;32.20;57.60;;;;;;5089283;28;20149;-70
2022/09/05 13:49:23;;;;;;;6.22;0.60;;;31.80;56.60;;;;;;5088802;28;20203;-69
2022/09/05 13:52:08;;;;;;;1.65;0.50;;;31.30;58.50;;;;;;5070938;28;20051;-71
2022/09/05 13:54:45;;;;;;;1.25;0.50;;;31.30;56.60;;;;;;5091152;28;20043;-69
2022/09/05 13:57:26;;;;;;;2.53;0.60;;;31.30;57.70;;;;;;5080407;28;20538;-69
2022/09/05 14:00:40;;;;;;;1.65;0.70;;;31.30;58.10;;;;;;5091823;28;20044;-69
2022/09/05 14:03:20;;;;;;;1.45;0.65;;;31.70;57.20;;;;;;5089257;28;20355;-68
2022/09/05 14:06:30;;;;;;;2.05;0.60;;;32.10;54.50;;;;;;5085990;28;20048;-68